sensor_id;sensor_type;location;lat;lon;timestamp;temperature;humidity
76613;DHT22;65507;48.454;-2.058;2023-01-15T00:01:45;8.70;84.70
76613;DHT22;65507;48.454;-2.058;2023-01-15T00:04:12;8.70;84.60
76613;DHT22;65507;48.454;-2.058;2023-01-15T00:06:41;8.60;84.50
76613;DHT22;65507;48.454;-2.058;2023-01-15T00:09:08;8.60;84.50
76613;DHT22;65507;48.454;-2.058;2023-01-15T00:11:36;8.50;84.20
76613;DHT22;65507;48.454;-2.058;2023-01-15T00:14:02;8.30;84.40
76613;DHT22;65507;48.454;-2.058;2023-01-15T00:16:27;8.00;85.40
76613;DHT22;65507;48.454;-2.058;2023-01-15T00:18:58;7.90;85.00
76613;DHT22;65507;48.454;-2.058;2023-01-15T00:21:25;7.70;84.80
76613;DHT22;65507;48.454;-2.058;2023-01-15T00:23:51;7.60;84.90
76613;DHT22;65507;48.454;-2.058;2023-01-15T00:26:36;7.50;85.00
76613;DHT22;65507;48.454;-2.058;2023-01-15T00:29:21;7.50;85.00
76613;DHT22;65507;48.454;-2.058;2023-01-15T00:32:03;7.40;84.90
76613;DHT22;65507;48.454;-2.058;2023-01-15T00:34:30;7.40;85.00
76613;DHT22;65507;48.454;-2.058;2023-01-15T00:36:56;7.40;84.90
76613;DHT22;65507;48.454;-2.058;2023-01-15T00:39:22;7.40;84.70
76613;DHT22;65507;48.454;-2.058;2023-01-15T00:41:49;7.50;84.70
76613;DHT22;65507;48.454;-2.058;2023-01-15T00:44:15;7.50;84.50
76613;DHT22;65507;48.454;-2.058;2023-01-15T00:46:41;7.50;84.50
76613;DHT22;65507;48.454;-2.058;2023-01-15T00:49:06;7.50;84.40
76613;DHT22;65507;48.454;-2.058;2023-01-15T00:51:32;7.60;84.50
76613;DHT22;65507;48.454;-2.058;2023-01-15T00:53:58;7.60;84.40
76613;DHT22;65507;48.454;-2.058;2023-01-15T00:56:24;7.50;84.20
76613;DHT22;65507;48.454;-2.058;2023-01-15T00:58:50;7.40;84.20
76613;DHT22;65507;48.454;-2.058;2023-01-15T01:01:16;7.00;84.20
76613;DHT22;65507;48.454;-2.058;2023-01-15T01:03:41;7.30;84.30
76613;DHT22;65507;48.454;-2.058;2023-01-15T01:06:07;7.30;84.40
76613;DHT22;65507;48.454;-2.058;2023-01-15T01:08:34;7.30;84.40
76613;DHT22;65507;48.454;-2.058;2023-01-15T01:11:08;7.30;84.40
76613;DHT22;65507;48.454;-2.058;2023-01-15T01:13:36;7.40;84.30
76613;DHT22;65507;48.454;-2.058;2023-01-15T01:16:02;7.40;84.10
76613;DHT22;65507;48.454;-2.058;2023-01-15T01:18:29;7.50;84.00
76613;DHT22;65507;48.454;-2.058;2023-01-15T01:20:55;7.50;84.00
76613;DHT22;65507;48.454;-2.058;2023-01-15T01:23:22;7.60;83.90
76613;DHT22;65507;48.454;-2.058;2023-01-15T01:25:48;7.60;83.90
76613;DHT22;65507;48.454;-2.058;2023-01-15T01:28:14;7.60;83.90
76613;DHT22;65507;48.454;-2.058;2023-01-15T01:30:41;7.70;84.00
76613;DHT22;65507;48.454;-2.058;2023-01-15T01:33:07;7.70;84.00
76613;DHT22;65507;48.454;-2.058;2023-01-15T01:35:33;7.70;83.90
76613;DHT22;65507;48.454;-2.058;2023-01-15T01:37:59;7.70;84.00
76613;DHT22;65507;48.454;-2.058;2023-01-15T01:40:27;7.70;84.00
76613;DHT22;65507;48.454;-2.058;2023-01-15T01:42:53;7.70;84.00
76613;DHT22;65507;48.454;-2.058;2023-01-15T01:45:26;7.80;84.00
76613;DHT22;65507;48.454;-2.058;2023-01-15T01:47:58;7.70;84.00
76613;DHT22;65507;48.454;-2.058;2023-01-15T01:50:27;7.80;84.00
76613;DHT22;65507;48.454;-2.058;2023-01-15T01:53:05;7.80;84.10
76613;DHT22;65507;48.454;-2.058;2023-01-15T01:55:33;7.80;84.10
76613;DHT22;65507;48.454;-2.058;2023-01-15T01:58:05;7.80;84.00
76613;DHT22;65507;48.454;-2.058;2023-01-15T02:00:32;7.90;84.10
76613;DHT22;65507;48.454;-2.058;2023-01-15T02:03:00;7.90;84.00
76613;DHT22;65507;48.454;-2.058;2023-01-15T02:05:31;7.90;84.00
76613;DHT22;65507;48.454;-2.058;2023-01-15T02:07:59;7.90;84.00
76613;DHT22;65507;48.454;-2.058;2023-01-15T02:10:25;7.90;84.00
76613;DHT22;65507;48.454;-2.058;2023-01-15T02:13:03;7.90;83.90
76613;DHT22;65507;48.454;-2.058;2023-01-15T02:15:42;8.00;83.90
76613;DHT22;65507;48.454;-2.058;2023-01-15T02:18:32;8.00;83.90
76613;DHT22;65507;48.454;-2.058;2023-01-15T02:24:29;7.90;83.80
76613;DHT22;65507;48.454;-2.058;2023-01-15T02:27:04;8.00;83.80
76613;DHT22;65507;48.454;-2.058;2023-01-15T02:32:15;8.00;83.70
76613;DHT22;65507;48.454;-2.058;2023-01-15T02:34:55;8.00;83.80
76613;DHT22;65507;48.454;-2.058;2023-01-15T02:37:27;8.00;83.60
76613;DHT22;65507;48.454;-2.058;2023-01-15T02:39:56;8.00;83.50
76613;DHT22;65507;48.454;-2.058;2023-01-15T02:42:24;8.00;83.50
76613;DHT22;65507;48.454;-2.058;2023-01-15T02:44:52;8.00;83.30
76613;DHT22;65507;48.454;-2.058;2023-01-15T02:47:23;8.00;83.10
76613;DHT22;65507;48.454;-2.058;2023-01-15T02:49:52;8.00;83.10
76613;DHT22;65507;48.454;-2.058;2023-01-15T02:52:24;8.00;83.00
76613;DHT22;65507;48.454;-2.058;2023-01-15T02:55:07;8.00;83.00
76613;DHT22;65507;48.454;-2.058;2023-01-15T02:57:37;8.00;82.80
76613;DHT22;65507;48.454;-2.058;2023-01-15T03:00:08;8.00;82.70
76613;DHT22;65507;48.454;-2.058;2023-01-15T03:02:53;8.00;82.70
76613;DHT22;65507;48.454;-2.058;2023-01-15T03:05:41;8.00;82.60
76613;DHT22;65507;48.454;-2.058;2023-01-15T03:08:08;8.00;82.60
76613;DHT22;65507;48.454;-2.058;2023-01-15T03:10:47;8.00;82.70
76613;DHT22;65507;48.454;-2.058;2023-01-15T03:13:29;7.90;82.50
76613;DHT22;65507;48.454;-2.058;2023-01-15T03:16:19;7.90;82.30
76613;DHT22;65507;48.454;-2.058;2023-01-15T03:22:06;7.80;82.40
76613;DHT22;65507;48.454;-2.058;2023-01-15T03:24:46;7.80;82.40
76613;DHT22;65507;48.454;-2.058;2023-01-15T03:27:13;7.80;82.40
76613;DHT22;65507;48.454;-2.058;2023-01-15T03:29:50;7.70;82.30
76613;DHT22;65507;48.454;-2.058;2023-01-15T03:32:18;7.80;82.30
76613;DHT22;65507;48.454;-2.058;2023-01-15T03:34:52;7.70;82.30
76613;DHT22;65507;48.454;-2.058;2023-01-15T03:37:19;7.70;82.20
76613;DHT22;65507;48.454;-2.058;2023-01-15T03:39:45;7.70;82.40
76613;DHT22;65507;48.454;-2.058;2023-01-15T03:42:40;7.70;82.40
76613;DHT22;65507;48.454;-2.058;2023-01-15T03:47:55;7.60;82.60
76613;DHT22;65507;48.454;-2.058;2023-01-15T03:55:44;7.40;82.80
76613;DHT22;65507;48.454;-2.058;2023-01-15T03:58:28;7.30;82.90
76613;DHT22;65507;48.454;-2.058;2023-01-15T04:00:57;7.30;83.00
76613;DHT22;65507;48.454;-2.058;2023-01-15T04:03:25;7.20;83.10
76613;DHT22;65507;48.454;-2.058;2023-01-15T04:05:54;7.20;83.20
76613;DHT22;65507;48.454;-2.058;2023-01-15T04:08:21;7.20;83.30
76613;DHT22;65507;48.454;-2.058;2023-01-15T04:10:58;7.10;83.20
76613;DHT22;65507;48.454;-2.058;2023-01-15T04:13:24;7.10;83.20
76613;DHT22;65507;48.454;-2.058;2023-01-15T04:15:51;7.10;83.20
76613;DHT22;65507;48.454;-2.058;2023-01-15T04:18:17;7.00;83.20
76613;DHT22;65507;48.454;-2.058;2023-01-15T04:20:44;7.00;83.20
76613;DHT22;65507;48.454;-2.058;2023-01-15T04:23:09;7.00;83.20
76613;DHT22;65507;48.454;-2.058;2023-01-15T04:25:35;7.00;83.20
76613;DHT22;65507;48.454;-2.058;2023-01-15T04:28:01;7.00;83.20
76613;DHT22;65507;48.454;-2.058;2023-01-15T04:30:27;6.90;83.20
76613;DHT22;65507;48.454;-2.058;2023-01-15T04:32:53;7.00;83.20
76613;DHT22;65507;48.454;-2.058;2023-01-15T04:35:19;7.00;83.20
76613;DHT22;65507;48.454;-2.058;2023-01-15T04:37:45;6.90;83.10
76613;DHT22;65507;48.454;-2.058;2023-01-15T04:40:11;6.90;83.10
76613;DHT22;65507;48.454;-2.058;2023-01-15T04:42:56;6.90;83.10
76613;DHT22;65507;48.454;-2.058;2023-01-15T04:45:42;6.90;83.10
76613;DHT22;65507;48.454;-2.058;2023-01-15T04:48:08;6.90;83.10
76613;DHT22;65507;48.454;-2.058;2023-01-15T04:50:34;6.80;83.00
76613;DHT22;65507;48.454;-2.058;2023-01-15T04:53:00;6.80;83.00
76613;DHT22;65507;48.454;-2.058;2023-01-15T04:55:25;6.80;82.90
76613;DHT22;65507;48.454;-2.058;2023-01-15T04:57:51;6.80;82.90
76613;DHT22;65507;48.454;-2.058;2023-01-15T05:00:17;6.80;82.80
76613;DHT22;65507;48.454;-2.058;2023-01-15T05:02:43;6.80;82.80
76613;DHT22;65507;48.454;-2.058;2023-01-15T05:05:12;6.80;82.80
76613;DHT22;65507;48.454;-2.058;2023-01-15T05:07:37;6.80;82.80
76613;DHT22;65507;48.454;-2.058;2023-01-15T05:10:03;6.80;82.80
76613;DHT22;65507;48.454;-2.058;2023-01-15T05:12:29;6.80;82.80
76613;DHT22;65507;48.454;-2.058;2023-01-15T05:14:55;6.80;82.70
76613;DHT22;65507;48.454;-2.058;2023-01-15T05:17:20;6.80;82.70
76613;DHT22;65507;48.454;-2.058;2023-01-15T05:19:46;6.80;82.70
76613;DHT22;65507;48.454;-2.058;2023-01-15T05:22:12;6.80;82.70
76613;DHT22;65507;48.454;-2.058;2023-01-15T05:24:38;6.80;82.70
76613;DHT22;65507;48.454;-2.058;2023-01-15T05:27:03;6.80;82.60
76613;DHT22;65507;48.454;-2.058;2023-01-15T05:29:30;6.80;82.70
76613;DHT22;65507;48.454;-2.058;2023-01-15T05:31:56;6.80;82.60
76613;DHT22;65507;48.454;-2.058;2023-01-15T05:34:22;6.90;82.60
76613;DHT22;65507;48.454;-2.058;2023-01-15T05:36:48;6.90;82.50
76613;DHT22;65507;48.454;-2.058;2023-01-15T05:39:13;6.90;82.40
76613;DHT22;65507;48.454;-2.058;2023-01-15T05:41:39;6.90;82.40
76613;DHT22;65507;48.454;-2.058;2023-01-15T05:44:16;7.00;82.40
76613;DHT22;65507;48.454;-2.058;2023-01-15T05:46:43;7.00;82.40
76613;DHT22;65507;48.454;-2.058;2023-01-15T05:49:12;6.90;82.40
76613;DHT22;65507;48.454;-2.058;2023-01-15T05:51:38;6.90;82.50
76613;DHT22;65507;48.454;-2.058;2023-01-15T05:54:06;7.00;82.50
76613;DHT22;65507;48.454;-2.058;2023-01-15T05:56:36;7.00;83.40
76613;DHT22;65507;48.454;-2.058;2023-01-15T05:59:03;7.00;82.40
76613;DHT22;65507;48.454;-2.058;2023-01-15T06:01:29;7.10;82.60
76613;DHT22;65507;48.454;-2.058;2023-01-15T06:03:59;7.00;82.50
76613;DHT22;65507;48.454;-2.058;2023-01-15T06:06:25;7.00;82.50
76613;DHT22;65507;48.454;-2.058;2023-01-15T06:08:51;7.00;82.40
76613;DHT22;65507;48.454;-2.058;2023-01-15T06:11:17;7.00;82.40
76613;DHT22;65507;48.454;-2.058;2023-01-15T06:13:43;7.00;82.40
76613;DHT22;65507;48.454;-2.058;2023-01-15T06:16:09;7.00;82.30
76613;DHT22;65507;48.454;-2.058;2023-01-15T06:18:36;7.10;82.40
76613;DHT22;65507;48.454;-2.058;2023-01-15T06:21:03;7.00;82.40
76613;DHT22;65507;48.454;-2.058;2023-01-15T06:23:30;7.00;82.40
76613;DHT22;65507;48.454;-2.058;2023-01-15T06:25:59;7.00;82.40
76613;DHT22;65507;48.454;-2.058;2023-01-15T06:28:25;7.00;82.50
76613;DHT22;65507;48.454;-2.058;2023-01-15T06:30:51;7.00;82.40
76613;DHT22;65507;48.454;-2.058;2023-01-15T06:33:17;7.00;82.40
76613;DHT22;65507;48.454;-2.058;2023-01-15T06:35:42;7.00;82.40
76613;DHT22;65507;48.454;-2.058;2023-01-15T06:38:08;6.90;82.40
76613;DHT22;65507;48.454;-2.058;2023-01-15T06:40:35;6.90;82.50
76613;DHT22;65507;48.454;-2.058;2023-01-15T06:43:00;6.90;82.50
76613;DHT22;65507;48.454;-2.058;2023-01-15T06:45:45;6.90;82.40
76613;DHT22;65507;48.454;-2.058;2023-01-15T06:48:29;6.90;82.50
76613;DHT22;65507;48.454;-2.058;2023-01-15T06:50:55;6.90;82.40
76613;DHT22;65507;48.454;-2.058;2023-01-15T06:53:21;6.90;82.30
76613;DHT22;65507;48.454;-2.058;2023-01-15T06:55:47;6.90;82.40
76613;DHT22;65507;48.454;-2.058;2023-01-15T06:58:13;6.90;82.20
76613;DHT22;65507;48.454;-2.058;2023-01-15T07:00:39;6.90;82.20
76613;DHT22;65507;48.454;-2.058;2023-01-15T07:03:10;6.90;82.20
76613;DHT22;65507;48.454;-2.058;2023-01-15T07:05:39;6.90;82.20
76613;DHT22;65507;48.454;-2.058;2023-01-15T07:08:05;7.00;82.10
76613;DHT22;65507;48.454;-2.058;2023-01-15T07:10:33;6.90;82.10
76613;DHT22;65507;48.454;-2.058;2023-01-15T07:12:59;6.90;82.10
76613;DHT22;65507;48.454;-2.058;2023-01-15T07:15:25;6.90;82.10
76613;DHT22;65507;48.454;-2.058;2023-01-15T07:17:55;6.90;82.10
76613;DHT22;65507;48.454;-2.058;2023-01-15T07:20:21;6.90;82.10
76613;DHT22;65507;48.454;-2.058;2023-01-15T07:22:50;6.90;82.20
76613;DHT22;65507;48.454;-2.058;2023-01-15T07:25:16;6.90;82.20
76613;DHT22;65507;48.454;-2.058;2023-01-15T07:27:42;6.90;83.20
76613;DHT22;65507;48.454;-2.058;2023-01-15T07:30:10;6.80;82.30
76613;DHT22;65507;48.454;-2.058;2023-01-15T07:32:36;6.80;82.30
76613;DHT22;65507;48.454;-2.058;2023-01-15T07:35:02;6.80;82.30
76613;DHT22;65507;48.454;-2.058;2023-01-15T07:37:28;6.80;82.30
76613;DHT22;65507;48.454;-2.058;2023-01-15T07:39:54;6.80;82.30
76613;DHT22;65507;48.454;-2.058;2023-01-15T07:42:21;6.80;82.30
76613;DHT22;65507;48.454;-2.058;2023-01-15T07:45:08;6.80;82.30
76613;DHT22;65507;48.454;-2.058;2023-01-15T07:47:53;6.80;82.30
76613;DHT22;65507;48.454;-2.058;2023-01-15T07:50:37;6.80;82.30
76613;DHT22;65507;48.454;-2.058;2023-01-15T07:53:03;6.80;82.30
76613;DHT22;65507;48.454;-2.058;2023-01-15T07:55:28;6.80;82.30
76613;DHT22;65507;48.454;-2.058;2023-01-15T07:57:54;6.80;83.10
76613;DHT22;65507;48.454;-2.058;2023-01-15T08:00:22;6.90;82.20
76613;DHT22;65507;48.454;-2.058;2023-01-15T08:02:48;6.90;82.10
76613;DHT22;65507;48.454;-2.058;2023-01-15T08:05:15;7.00;83.00
76613;DHT22;65507;48.454;-2.058;2023-01-15T08:07:42;7.00;82.00
76613;DHT22;65507;48.454;-2.058;2023-01-15T08:10:09;7.10;81.90
76613;DHT22;65507;48.454;-2.058;2023-01-15T08:12:35;7.10;81.80
76613;DHT22;65507;48.454;-2.058;2023-01-15T08:15:20;7.10;81.60
76613;DHT22;65507;48.454;-2.058;2023-01-15T08:17:47;7.20;81.50
76613;DHT22;65507;48.454;-2.058;2023-01-15T08:20:16;7.20;81.50
76613;DHT22;65507;48.454;-2.058;2023-01-15T08:22:45;7.20;81.40
76613;DHT22;65507;48.454;-2.058;2023-01-15T08:25:14;7.30;81.40
76613;DHT22;65507;48.454;-2.058;2023-01-15T08:27:40;7.30;81.40
76613;DHT22;65507;48.454;-2.058;2023-01-15T08:30:08;7.30;81.40
76613;DHT22;65507;48.454;-2.058;2023-01-15T08:32:34;7.30;81.30
76613;DHT22;65507;48.454;-2.058;2023-01-15T08:35:00;7.40;81.20
76613;DHT22;65507;48.454;-2.058;2023-01-15T08:37:25;7.40;81.20
76613;DHT22;65507;48.454;-2.058;2023-01-15T08:39:51;7.50;81.10
76613;DHT22;65507;48.454;-2.058;2023-01-15T08:42:18;7.50;81.10
76613;DHT22;65507;48.454;-2.058;2023-01-15T08:44:44;7.50;81.00
76613;DHT22;65507;48.454;-2.058;2023-01-15T08:47:10;7.60;81.00
76613;DHT22;65507;48.454;-2.058;2023-01-15T08:49:36;7.60;81.00
76613;DHT22;65507;48.454;-2.058;2023-01-15T08:52:03;7.60;80.90
76613;DHT22;65507;48.454;-2.058;2023-01-15T08:54:29;7.70;80.90
76613;DHT22;65507;48.454;-2.058;2023-01-15T08:56:54;7.70;80.90
76613;DHT22;65507;48.454;-2.058;2023-01-15T08:59:20;7.80;80.90
76613;DHT22;65507;48.454;-2.058;2023-01-15T09:01:46;7.90;80.80
76613;DHT22;65507;48.454;-2.058;2023-01-15T09:04:14;8.00;80.60
76613;DHT22;65507;48.454;-2.058;2023-01-15T09:06:40;7.90;80.50
76613;DHT22;65507;48.454;-2.058;2023-01-15T09:09:06;7.90;80.60
76613;DHT22;65507;48.454;-2.058;2023-01-15T09:11:32;7.90;80.70
76613;DHT22;65507;48.454;-2.058;2023-01-15T09:13:58;8.00;80.70
76613;DHT22;65507;48.454;-2.058;2023-01-15T09:16:24;8.00;80.60
76613;DHT22;65507;48.454;-2.058;2023-01-15T09:18:52;8.00;80.50
76613;DHT22;65507;48.454;-2.058;2023-01-15T09:21:19;8.10;80.50
76613;DHT22;65507;48.454;-2.058;2023-01-15T09:23:45;8.10;80.50
76613;DHT22;65507;48.454;-2.058;2023-01-15T09:28:55;8.20;80.50
76613;DHT22;65507;48.454;-2.058;2023-01-15T09:31:22;8.20;80.40
76613;DHT22;65507;48.454;-2.058;2023-01-15T09:33:48;8.20;80.40
76613;DHT22;65507;48.454;-2.058;2023-01-15T09:36:26;8.20;80.40
76613;DHT22;65507;48.454;-2.058;2023-01-15T09:38:53;8.30;80.30
76613;DHT22;65507;48.454;-2.058;2023-01-15T09:41:20;8.30;80.30
76613;DHT22;65507;48.454;-2.058;2023-01-15T09:44:15;8.30;80.20
76613;DHT22;65507;48.454;-2.058;2023-01-15T09:49:29;8.40;80.20
76613;DHT22;65507;48.454;-2.058;2023-01-15T09:52:45;8.40;80.10
76613;DHT22;65507;48.454;-2.058;2023-01-15T09:54:51;8.50;80.20
76613;DHT22;65507;48.454;-2.058;2023-01-15T09:57:22;8.50;80.10
76613;DHT22;65507;48.454;-2.058;2023-01-15T09:59:51;8.50;80.00
76613;DHT22;65507;48.454;-2.058;2023-01-15T10:02:23;8.60;80.00
76613;DHT22;65507;48.454;-2.058;2023-01-15T10:05:40;8.70;79.90
76613;DHT22;65507;48.454;-2.058;2023-01-15T10:10:35;8.70;79.80
76613;DHT22;65507;48.454;-2.058;2023-01-15T10:16:01;8.80;79.70
76613;DHT22;65507;48.454;-2.058;2023-01-15T10:18:27;8.90;79.70
76613;DHT22;65507;48.454;-2.058;2023-01-15T10:23:34;9.00;79.50
76613;DHT22;65507;48.454;-2.058;2023-01-15T10:26:38;9.00;79.30
76613;DHT22;65507;48.454;-2.058;2023-01-15T10:32:02;9.10;79.20
76613;DHT22;65507;48.454;-2.058;2023-01-15T10:37:21;9.20;78.90
76613;DHT22;65507;48.454;-2.058;2023-01-15T10:45:10;9.40;78.70
76613;DHT22;65507;48.454;-2.058;2023-01-15T10:47:38;9.40;78.50
76613;DHT22;65507;48.454;-2.058;2023-01-15T10:50:23;9.40;78.50
76613;DHT22;65507;48.454;-2.058;2023-01-15T10:55:49;9.50;78.30
76613;DHT22;65507;48.454;-2.058;2023-01-15T11:01:20;9.60;78.20
76613;DHT22;65507;48.454;-2.058;2023-01-15T11:03:48;9.60;78.30
76613;DHT22;65507;48.454;-2.058;2023-01-15T11:06:19;9.60;78.30
76613;DHT22;65507;48.454;-2.058;2023-01-15T11:08:52;9.60;78.40
76613;DHT22;65507;48.454;-2.058;2023-01-15T11:14:11;9.60;78.30
76613;DHT22;65507;48.454;-2.058;2023-01-15T11:16:56;9.60;78.20
76613;DHT22;65507;48.454;-2.058;2023-01-15T11:19:36;9.60;78.20
76613;DHT22;65507;48.454;-2.058;2023-01-15T11:22:18;9.60;78.20
76613;DHT22;65507;48.454;-2.058;2023-01-15T11:24:59;9.60;78.20
76613;DHT22;65507;48.454;-2.058;2023-01-15T11:27:35;9.60;78.20
76613;DHT22;65507;48.454;-2.058;2023-01-15T11:30:03;9.70;78.20
76613;DHT22;65507;48.454;-2.058;2023-01-15T11:32:34;9.70;78.20
76613;DHT22;65507;48.454;-2.058;2023-01-15T11:35:16;9.70;78.20
76613;DHT22;65507;48.454;-2.058;2023-01-15T11:37:42;9.70;78.20
76613;DHT22;65507;48.454;-2.058;2023-01-15T11:40:21;9.70;78.10
76613;DHT22;65507;48.454;-2.058;2023-01-15T11:42:51;9.70;78.00
76613;DHT22;65507;48.454;-2.058;2023-01-15T11:45:48;9.80;78.10
76613;DHT22;65507;48.454;-2.058;2023-01-15T11:48:46;9.80;78.10
76613;DHT22;65507;48.454;-2.058;2023-01-15T11:51:40;9.80;78.00
76613;DHT22;65507;48.454;-2.058;2023-01-15T11:54:09;9.80;77.90
76613;DHT22;65507;48.454;-2.058;2023-01-15T11:56:43;9.80;77.90
76613;DHT22;65507;48.454;-2.058;2023-01-15T11:59:12;9.80;77.80
76613;DHT22;65507;48.454;-2.058;2023-01-15T12:01:52;9.80;77.80
76613;DHT22;65507;48.454;-2.058;2023-01-15T12:04:45;9.90;77.70
76613;DHT22;65507;48.454;-2.058;2023-01-15T12:07:14;9.90;77.50
76613;DHT22;65507;48.454;-2.058;2023-01-15T12:12:48;10.00;77.40
76613;DHT22;65507;48.454;-2.058;2023-01-15T12:23:25;10.20;77.20
76613;DHT22;65507;48.454;-2.058;2023-01-15T12:26:26;10.20;77.00
76613;DHT22;65507;48.454;-2.058;2023-01-15T12:31:45;10.20;76.80
76613;DHT22;65507;48.454;-2.058;2023-01-15T12:37:19;10.30;76.70
76613;DHT22;65507;48.454;-2.058;2023-01-15T12:42:34;10.40;76.50
76613;DHT22;65507;48.454;-2.058;2023-01-15T12:45:25;10.50;76.40
76613;DHT22;65507;48.454;-2.058;2023-01-15T12:47:57;9.90;76.10
76613;DHT22;65507;48.454;-2.058;2023-01-15T12:50:46;10.50;76.10
76613;DHT22;65507;48.454;-2.058;2023-01-15T12:53:19;10.40;76.10
76613;DHT22;65507;48.454;-2.058;2023-01-15T12:56:01;10.50;76.30
76613;DHT22;65507;48.454;-2.058;2023-01-15T13:04:07;10.60;76.00
76613;DHT22;65507;48.454;-2.058;2023-01-15T13:06:38;10.60;76.00
76613;DHT22;65507;48.454;-2.058;2023-01-15T13:09:17;10.70;75.90
76613;DHT22;65507;48.454;-2.058;2023-01-15T13:11:46;10.70;75.80
76613;DHT22;65507;48.454;-2.058;2023-01-15T13:14:15;10.80;75.80
76613;DHT22;65507;48.454;-2.058;2023-01-15T13:16:48;10.80;75.70
76613;DHT22;65507;48.454;-2.058;2023-01-15T13:22:18;10.90;75.40
76613;DHT22;65507;48.454;-2.058;2023-01-15T13:33:51;11.10;75.10
76613;DHT22;65507;48.454;-2.058;2023-01-15T13:36:29;11.20;75.10
76613;DHT22;65507;48.454;-2.058;2023-01-15T13:39:00;11.30;75.10
76613;DHT22;65507;48.454;-2.058;2023-01-15T13:41:31;11.40;74.80
76613;DHT22;65507;48.454;-2.058;2023-01-15T13:44:21;11.50;74.70
76613;DHT22;65507;48.454;-2.058;2023-01-15T13:47:18;11.60;74.50
76613;DHT22;65507;48.454;-2.058;2023-01-15T13:50:27;11.60;74.40
76613;DHT22;65507;48.454;-2.058;2023-01-15T13:52:35;11.60;74.60
76613;DHT22;65507;48.454;-2.058;2023-01-15T13:55:20;11.50;74.90
76613;DHT22;65507;48.454;-2.058;2023-01-15T13:57:48;11.40;75.00
76613;DHT22;65507;48.454;-2.058;2023-01-15T14:00:33;11.30;75.10
76613;DHT22;65507;48.454;-2.058;2023-01-15T14:03:32;11.00;75.30
76613;DHT22;65507;48.454;-2.058;2023-01-15T14:06:03;10.80;75.60
76613;DHT22;65507;48.454;-2.058;2023-01-15T14:08:39;10.60;76.20
76613;DHT22;65507;48.454;-2.058;2023-01-15T14:11:26;10.50;76.40
76613;DHT22;65507;48.454;-2.058;2023-01-15T14:25:18;9.90;77.30
76613;DHT22;65507;48.454;-2.058;2023-01-15T14:35:35;9.50;78.10
76613;DHT22;65507;48.454;-2.058;2023-01-15T14:38:07;9.50;78.20
76613;DHT22;65507;48.454;-2.058;2023-01-15T14:40:39;9.50;78.20
76613;DHT22;65507;48.454;-2.058;2023-01-15T14:43:17;9.50;78.20
76613;DHT22;65507;48.454;-2.058;2023-01-15T14:45:45;9.60;78.20
76613;DHT22;65507;48.454;-2.058;2023-01-15T14:48:33;9.50;78.10
76613;DHT22;65507;48.454;-2.058;2023-01-15T14:51:14;9.60;78.20
76613;DHT22;65507;48.454;-2.058;2023-01-15T14:53:47;9.60;78.20
76613;DHT22;65507;48.454;-2.058;2023-01-15T14:56:21;9.60;78.20
76613;DHT22;65507;48.454;-2.058;2023-01-15T14:58:49;9.60;78.20
76613;DHT22;65507;48.454;-2.058;2023-01-15T15:04:43;9.70;78.00
76613;DHT22;65507;48.454;-2.058;2023-01-15T15:09:28;9.70;77.90
76613;DHT22;65507;48.454;-2.058;2023-01-15T15:17:58;9.60;78.10
76613;DHT22;65507;48.454;-2.058;2023-01-15T15:23:19;9.40;78.50
76613;DHT22;65507;48.454;-2.058;2023-01-15T15:26:03;9.40;78.60
76613;DHT22;65507;48.454;-2.058;2023-01-15T15:28:29;9.30;78.60
76613;DHT22;65507;48.454;-2.058;2023-01-15T15:30:56;9.30;78.70
76613;DHT22;65507;48.454;-2.058;2023-01-15T15:33:36;9.40;78.70
76613;DHT22;65507;48.454;-2.058;2023-01-15T15:36:02;9.40;78.60
76613;DHT22;65507;48.454;-2.058;2023-01-15T15:38:28;9.40;78.60
76613;DHT22;65507;48.454;-2.058;2023-01-15T15:41:03;9.40;78.50
76613;DHT22;65507;48.454;-2.058;2023-01-15T15:46:31;9.40;78.70
76613;DHT22;65507;48.454;-2.058;2023-01-15T15:49:15;9.30;78.70
76613;DHT22;65507;48.454;-2.058;2023-01-15T15:57:03;9.20;79.00
76613;DHT22;65507;48.454;-2.058;2023-01-15T15:59:46;9.10;79.10
76613;DHT22;65507;48.454;-2.058;2023-01-15T16:02:50;9.10;79.20
76613;DHT22;65507;48.454;-2.058;2023-01-15T16:05:19;9.10;79.20
76613;DHT22;65507;48.454;-2.058;2023-01-15T16:07:46;9.00;79.30
76613;DHT22;65507;48.454;-2.058;2023-01-15T16:10:21;9.00;79.40
76613;DHT22;65507;48.454;-2.058;2023-01-15T16:12:53;8.90;79.50
76613;DHT22;65507;48.454;-2.058;2023-01-15T16:15:32;8.90;79.60
76613;DHT22;65507;48.454;-2.058;2023-01-15T16:18:00;8.90;79.70
76613;DHT22;65507;48.454;-2.058;2023-01-15T16:20:27;8.80;79.70
76613;DHT22;65507;48.454;-2.058;2023-01-15T16:22:58;8.80;79.80
76613;DHT22;65507;48.454;-2.058;2023-01-15T16:25:31;8.80;80.00
76613;DHT22;65507;48.454;-2.058;2023-01-15T16:27:58;8.80;80.00
76613;DHT22;65507;48.454;-2.058;2023-01-15T16:30:24;8.70;80.00
76613;DHT22;65507;48.454;-2.058;2023-01-15T16:32:51;8.70;80.00
76613;DHT22;65507;48.454;-2.058;2023-01-15T16:35:21;8.70;80.10
76613;DHT22;65507;48.454;-2.058;2023-01-15T16:37:53;8.70;80.10
76613;DHT22;65507;48.454;-2.058;2023-01-15T16:40:42;8.60;80.20
76613;DHT22;65507;48.454;-2.058;2023-01-15T16:43:31;8.60;80.20
76613;DHT22;65507;48.454;-2.058;2023-01-15T16:45:58;8.60;80.30
76613;DHT22;65507;48.454;-2.058;2023-01-15T16:48:28;8.50;80.30
76613;DHT22;65507;48.454;-2.058;2023-01-15T16:53:53;8.50;80.40
76613;DHT22;65507;48.454;-2.058;2023-01-15T16:59:04;8.40;80.40
76613;DHT22;65507;48.454;-2.058;2023-01-15T17:01:36;8.40;81.00
76613;DHT22;65507;48.454;-2.058;2023-01-15T17:04:12;8.40;80.50
76613;DHT22;65507;48.454;-2.058;2023-01-15T17:06:40;8.40;80.40
76613;DHT22;65507;48.454;-2.058;2023-01-15T17:09:12;8.40;80.40
76613;DHT22;65507;48.454;-2.058;2023-01-15T17:11:38;8.40;80.40
76613;DHT22;65507;48.454;-2.058;2023-01-15T17:14:20;8.50;80.30
76613;DHT22;65507;48.454;-2.058;2023-01-15T17:16:46;8.50;80.20
76613;DHT22;65507;48.454;-2.058;2023-01-15T17:19:12;8.50;80.20
76613;DHT22;65507;48.454;-2.058;2023-01-15T17:21:38;8.40;80.00
76613;DHT22;65507;48.454;-2.058;2023-01-15T17:24:09;8.40;80.00
76613;DHT22;65507;48.454;-2.058;2023-01-15T17:26:36;8.50;80.10
76613;DHT22;65507;48.454;-2.058;2023-01-15T17:29:01;8.40;79.90
76613;DHT22;65507;48.454;-2.058;2023-01-15T17:31:30;8.40;79.90
76613;DHT22;65507;48.454;-2.058;2023-01-15T17:33:58;8.40;79.80
76613;DHT22;65507;48.454;-2.058;2023-01-15T17:36:24;8.40;79.80
76613;DHT22;65507;48.454;-2.058;2023-01-15T17:38:51;8.40;79.80
76613;DHT22;65507;48.454;-2.058;2023-01-15T17:41:19;8.40;79.80
76613;DHT22;65507;48.454;-2.058;2023-01-15T17:43:45;8.40;79.80
76613;DHT22;65507;48.454;-2.058;2023-01-15T17:46:11;8.40;79.80
76613;DHT22;65507;48.454;-2.058;2023-01-15T17:48:37;8.40;79.80
76613;DHT22;65507;48.454;-2.058;2023-01-15T17:51:05;8.40;80.70
76613;DHT22;65507;48.454;-2.058;2023-01-15T17:53:34;8.40;79.80
76613;DHT22;65507;48.454;-2.058;2023-01-15T17:56:01;8.30;79.80
76613;DHT22;65507;48.454;-2.058;2023-01-15T17:58:45;8.30;79.80
76613;DHT22;65507;48.454;-2.058;2023-01-15T18:01:35;8.30;79.80
76613;DHT22;65507;48.454;-2.058;2023-01-15T18:04:25;8.30;79.80
76613;DHT22;65507;48.454;-2.058;2023-01-15T18:07:10;8.30;79.80
76613;DHT22;65507;48.454;-2.058;2023-01-15T18:09:36;8.30;79.90
76613;DHT22;65507;48.454;-2.058;2023-01-15T18:12:03;8.20;79.90